Time;durP1;ratioP1;P1;durP2;ratioP2;P2;SDS_P1;SDS_P2;PMS_P1;PMS_P2;Temp;Humidity;BMP_temperature;BMP_pressure;BME280_temperature;BME280_humidity;BME280_pressure;Samples;Min_cycle;Max_cycle;Signal;HPM_P1;HPM_P2
2021/05/03 00:00:48;;;;;;;3.87;3.10;;;;;;;3.91;70.37;102203.06;5134421;28;20088;-38
2021/05/03 00:03:14;;;;;;;4.03;3.20;;;;;;;3.90;69.19;102196.00;5134178;28;20540;-38
2021/05/03 00:05:45;;;;;;;3.70;3.20;;;;;;;3.82;70.25;102186.91;5134145;28;20019;-38
2021/05/03 00:08:11;;;;;;;7.30;3.05;;;;;;;3.81;69.14;102184.41;5135986;27;20386;-38
2021/05/03 00:10:36;;;;;;;4.63;3.30;;;;;;;3.79;70.89;102184.53;5138169;27;20035;-38
2021/05/03 00:13:02;;;;;;;6.50;3.40;;;;;;;3.78;71.42;102182.88;5138485;27;20045;-39
2021/05/03 00:15:27;;;;;;;4.77;3.37;;;;;;;3.81;71.22;102179.91;5137132;27;20023;-39
2021/05/03 00:17:52;;;;;;;5.13;3.33;;;;;;;3.78;69.78;102176.69;5138225;27;20445;-39
2021/05/03 00:20:18;;;;;;;4.73;3.50;;;;;;;3.72;71.54;102180.81;5138057;27;20382;-39
2021/05/03 00:22:43;;;;;;;4.73;3.33;;;;;;;3.70;70.64;102179.25;5137891;27;20107;-38
2021/05/03 00:25:09;;;;;;;3.83;3.17;;;;;;;3.61;70.77;102175.66;5138152;27;20015;-39
2021/05/03 00:27:34;;;;;;;4.30;3.17;;;;;;;3.63;71.00;102184.41;5138030;27;20073;-39
2021/05/03 00:30:00;;;;;;;5.43;3.40;;;;;;;3.59;70.04;102180.34;5138273;27;20488;-38
2021/05/03 00:32:25;;;;;;;4.53;3.53;;;;;;;3.59;71.10;102194.56;5137615;27;20031;-38
2021/05/03 00:34:52;;;;;;;5.10;3.63;;;;;;;3.63;71.44;102195.09;5138468;27;20030;-38
2021/05/03 00:37:17;;;;;;;5.35;3.78;;;;;;;3.59;71.44;102191.88;5138309;27;20030;-39
2021/05/03 00:39:43;;;;;;;5.63;3.03;;;;;;;3.56;71.13;102194.88;5137562;27;20597;-39
2021/05/03 00:42:08;;;;;;;4.50;3.10;;;;;;;3.54;71.25;102191.50;5137795;27;20421;-39
2021/05/03 00:44:34;;;;;;;5.03;3.40;;;;;;;3.52;72.28;102192.66;5138115;27;20028;-39
2021/05/03 00:46:59;;;;;;;5.30;3.40;;;;;;;3.49;72.38;102190.28;5137936;27;20067;-38
2021/05/03 00:49:27;;;;;;;4.05;3.08;;;;;;;3.58;72.19;102189.38;5137688;27;20261;-39
2021/05/03 00:51:53;;;;;;;4.22;3.25;;;;;;;3.52;72.46;102189.97;5137620;27;20049;-39
2021/05/03 00:54:19;;;;;;;5.85;3.88;;;;;;;3.52;72.46;102196.16;5137295;27;20023;-38
2021/05/03 00:56:44;;;;;;;6.57;3.67;;;;;;;3.53;72.01;102191.66;5137296;27;20453;-39
2021/05/03 00:59:10;;;;;;;5.93;3.80;;;;;;;3.47;72.11;102194.94;5135838;27;20043;-39
2021/05/03 01:01:35;;;;;;;4.23;3.53;;;;;;;3.42;72.23;102184.69;5137656;27;20019;-39
2021/05/03 01:04:00;;;;;;;5.80;3.53;;;;;;;3.41;71.84;102184.84;5137384;27;20065;-39
2021/05/03 01:06:25;;;;;;;8.00;3.87;;;;;;;3.32;71.65;102182.09;5137602;27;20027;-39
2021/05/03 01:08:51;;;;;;;5.17;3.67;;;;;;;3.35;71.64;102181.78;5137252;27;20019;-39
2021/05/03 01:11:16;;;;;;;4.67;3.50;;;;;;;3.34;71.80;102184.59;5136964;27;20027;-39
2021/05/03 01:13:41;;;;;;;5.77;3.50;;;;;;;3.31;71.45;102184.91;5137996;27;20083;-39
2021/05/03 01:16:07;;;;;;;4.00;3.20;;;;;;;3.33;71.67;102180.25;5137757;27;20049;-39
2021/05/03 01:18:36;;;;;;;4.75;3.38;;;;;;;3.22;72.03;102180.44;5136527;27;20039;-39
2021/05/03 01:21:02;;;;;;;6.60;3.92;;;;;;;3.22;72.37;102175.09;5137802;27;20110;-39
2021/05/03 01:23:27;;;;;;;4.70;3.53;;;;;;;3.16;73.39;102171.19;5136753;27;20127;-39
2021/05/03 01:25:53;;;;;;;4.07;3.67;;;;;;;3.20;73.18;102180.59;5137526;27;20467;-39
2021/05/03 01:28:19;;;;;;;5.78;3.45;;;;;;;3.12;73.96;102177.00;5137480;27;20386;-39
2021/05/03 01:30:46;;;;;;;4.68;3.80;;;;;;;3.11;74.06;102178.81;5136963;27;20035;-39
2021/05/03 01:33:14;;;;;;;4.90;4.03;;;;;;;3.07;74.06;102172.97;5136965;27;20023;-39
2021/05/03 01:35:45;;;;;;;4.32;3.60;;;;;;;2.96;74.77;102178.50;5136794;27;20536;-39
2021/05/03 01:38:11;;;;;;;4.63;3.58;;;;;;;2.90;75.05;102172.91;5136972;27;20382;-39
2021/05/03 01:40:40;;;;;;;4.13;3.42;;;;;;;2.84;74.58;102169.00;5136820;27;20072;-39
2021/05/03 01:43:23;;;;;;;8.02;3.80;;;;;;;2.89;74.60;102176.56;5136770;27;20027;-39
2021/05/03 01:45:53;;;;;;;4.63;3.38;;;;;;;2.91;74.23;102171.91;5137341;27;20027;-38
2021/05/03 01:48:21;;;;;;;4.03;3.50;;;;;;;2.92;75.08;102171.75;5136628;27;20537;-38
2021/05/03 01:50:46;;;;;;;4.85;3.85;;;;;;;2.82;75.15;102174.47;5136519;27;20094;-38
2021/05/03 01:53:12;;;;;;;5.45;3.35;;;;;;;2.91;75.54;102169.22;5136345;27;20038;-38
2021/05/03 01:55:38;;;;;;;5.63;3.95;;;;;;;2.80;75.22;102178.28;5136712;27;20027;-39
2021/05/03 01:58:05;;;;;;;4.30;3.72;;;;;;;2.86;75.46;102174.19;5136868;27;20451;-38
2021/05/03 02:00:32;;;;;;;5.45;3.67;;;;;;;2.87;75.24;102159.81;5136998;27;20096;-38
2021/05/03 02:02:57;;;;;;;6.00;3.75;;;;;;;2.80;75.06;102164.94;5135803;27;20027;-38
2021/05/03 02:05:25;;;;;;;5.93;3.93;;;;;;;2.83;75.62;102165.50;5136197;27;20060;-39
2021/05/03 02:08:04;;;;;;;5.43;4.30;;;;;;;2.80;75.46;102175.63;5135779;27;20524;-38
2021/05/03 02:10:31;;;;;;;5.00;3.92;;;;;;;2.74;76.12;102166.38;5136221;27;20027;-40
2021/05/03 02:12:58;;;;;;;4.70;4.10;;;;;;;2.71;75.35;102165.81;5136345;27;20058;-39
2021/05/03 02:15:24;;;;;;;6.43;3.80;;;;;;;2.63;76.36;102161.19;5136014;27;20122;-39
2021/05/03 02:17:50;;;;;;;;;;;;;;;2.80;74.03;102163.09;5136287;27;20429;-38
2021/05/03 02:20:16;;;;;;;5.20;4.15;;;;;;;2.64;76.07;102170.91;5136538;27;19919;-39
2021/05/03 02:22:43;;;;;;;5.22;4.18;;;;;;;2.66;76.00;102163.59;5136042;27;20375;-39
2021/05/03 02:25:08;;;;;;;4.95;4.03;;;;;;;2.74;75.46;102165.53;5136014;27;20360;-38
2021/05/03 02:27:34;;;;;;;6.70;4.60;;;;;;;2.67;75.77;102165.25;5135677;27;20029;-38
2021/05/03 02:29:59;;;;;;;7.03;4.57;;;;;;;2.70;76.40;102164.97;5133979;27;20034;-38
2021/05/03 02:32:25;;;;;;;5.83;4.20;;;;;;;2.74;76.38;102166.38;5135166;27;20065;-39
2021/05/03 02:34:50;;;;;;;5.57;4.32;;;;;;;2.66;76.12;102160.06;5135828;27;20024;-39
2021/05/03 02:37:16;;;;;;;6.03;4.07;;;;;;;2.66;76.36;102163.59;5135617;27;20103;-38
2021/05/03 02:39:42;;;;;;;4.77;4.03;;;;;;;2.73;74.23;102155.81;5135982;27;20027;-39
2021/05/03 02:42:08;;;;;;;;;;;;;;;2.82;73.74;102153.09;5136372;27;20019;-38
2021/05/03 02:44:38;;;;;;;6.45;4.35;;;;;;;2.69;75.36;102159.78;5135771;27;19907;-39
2021/05/03 02:47:03;;;;;;;5.32;4.25;;;;;;;2.69;76.24;102147.28;5135919;27;20482;-39
2021/05/03 02:49:29;;;;;;;4.53;4.13;;;;;;;2.67;75.90;102154.56;5135563;27;20047;-39
2021/05/03 02:51:54;;;;;;;5.80;4.53;;;;;;;2.67;75.71;102156.41;5135282;27;20425;-39
2021/05/03 02:54:19;;;;;;;4.40;3.80;;;;;;;2.72;75.21;102154.97;5135235;27;20079;-39
2021/05/03 02:56:44;;;;;;;5.90;4.47;;;;;;;2.63;72.97;102155.84;5135454;27;20027;-39
2021/05/03 02:59:10;;;;;;;6.27;4.70;;;;;;;2.67;75.83;102153.75;5135033;27;20030;-39
2021/05/03 03:01:35;;;;;;;6.20;4.37;;;;;;;2.67;76.11;102146.56;5135682;27;20042;-38
2021/05/03 03:04:00;;;;;;;6.00;4.57;;;;;;;2.66;76.01;102146.72;5134904;27;20328;-38
2021/05/03 03:06:26;;;;;;;6.83;4.73;;;;;;;2.57;72.82;102141.25;5134807;27;20038;-38
2021/05/03 03:08:51;;;;;;;7.43;4.90;;;;;;;2.61;75.57;102144.50;5134946;27;20505;-39
2021/05/03 03:11:17;;;;;;;5.73;5.00;;;;;;;2.60;76.16;102137.47;5134636;27;20106;-38
2021/05/03 03:13:42;;;;;;;5.72;5.10;;;;;;;2.60;75.88;102141.97;5134495;27;20053;-39
2021/05/03 03:16:08;;;;;;;7.53;5.43;;;;;;;2.70;76.69;102140.09;5135087;27;20421;-39
2021/05/03 03:18:34;;;;;;;7.70;5.40;;;;;;;2.64;76.76;102144.22;5134733;27;20027;-39
2021/05/03 03:20:59;;;;;;;6.67;5.43;;;;;;;2.66;76.43;102141.38;5134754;27;20023;-39
2021/05/03 03:23:24;;;;;;;5.93;5.27;;;;;;;2.67;76.24;102145.72;5134351;27;20019;-39
2021/05/03 03:25:50;;;;;;;8.30;5.57;;;;;;;2.68;76.01;102148.25;5134703;27;20372;-39
2021/05/03 03:28:15;;;;;;;7.30;6.33;;;;;;;2.63;75.93;102145.16;5134667;27;20061;-39
2021/05/03 03:30:40;;;;;;;7.60;5.43;;;;;;;2.65;76.41;102137.88;5134840;27;20023;-39
2021/05/03 03:33:06;;;;;;;6.57;4.77;;;;;;;2.75;77.14;102136.00;5134856;27;20106;-38
2021/05/03 03:35:31;;;;;;;6.50;5.47;;;;;;;2.68;75.70;102139.38;5135092;27;20019;-38
2021/05/03 03:37:56;;;;;;;6.43;4.87;;;;;;;2.68;76.57;102134.88;5134188;27;20056;-39
2021/05/03 03:40:22;;;;;;;7.47;5.50;;;;;;;2.75;76.56;102127.13;5134938;27;20023;-39
2021/05/03 03:42:47;;;;;;;8.13;5.83;;;;;;;2.74;76.97;102128.13;5134225;27;20163;-39
2021/05/03 03:45:14;;;;;;;7.55;5.38;;;;;;;2.70;76.00;102126.75;5134668;27;20019;-38
2021/05/03 03:47:40;;;;;;;7.10;5.60;;;;;;;2.74;76.33;102122.78;5133989;27;20475;-39
2021/05/03 03:50:06;;;;;;;6.80;5.60;;;;;;;2.71;76.09;102120.41;5134296;27;20107;-39
2021/05/03 03:52:32;;;;;;;;;;;;;;;2.83;75.67;102122.75;5135489;27;20020;-39
2021/05/03 03:54:57;;;;;;;6.60;5.90;;;;;;;2.76;77.09;102131.50;5134568;27;19946;-39
2021/05/03 03:57:23;;;;;;;7.50;6.17;;;;;;;2.82;76.30;102129.06;5134443;28;20027;-39
2021/05/03 03:59:53;;;;;;;6.30;5.67;;;;;;;2.84;76.21;102132.44;5134479;28;20383;-39
2021/05/03 04:02:18;;;;;;;9.48;5.53;;;;;;;2.85;76.16;102130.59;5134686;27;20050;-39
2021/05/03 04:04:59;;;;;;;6.70;5.33;;;;;;;2.90;76.69;102132.81;5134282;28;20490;-39
2021/05/03 04:26:01;;;;;;;8.20;5.90;;;;;;;2.99;76.69;102129.25;5134824;28;20065;-39
2021/05/03 04:28:27;;;;;;;7.47;5.83;;;;;;;3.03;76.75;102127.97;5133767;28;20440;-38
2021/05/03 04:30:52;;;;;;;10.20;5.60;;;;;;;3.05;76.82;102125.97;5134074;28;20527;-38
2021/05/03 04:33:17;;;;;;;8.03;5.50;;;;;;;3.09;76.43;102125.53;5133914;28;20468;-38
2021/05/03 04:35:43;;;;;;;6.70;5.90;;;;;;;3.15;75.50;102126.75;5134470;28;20148;-38
2021/05/03 04:38:08;;;;;;;7.67;6.53;;;;;;;3.19;75.89;102127.31;5133909;28;20020;-38
2021/05/03 04:40:33;;;;;;;7.27;6.00;;;;;;;3.20;76.17;102128.97;5133881;28;20031;-38
2021/05/03 04:42:59;;;;;;;8.67;6.37;;;;;;;3.22;75.66;102127.84;5133852;28;20094;-39
2021/05/03 04:45:24;;;;;;;10.83;7.30;;;;;;;3.22;75.86;102116.28;5133613;28;20096;-39
2021/05/03 04:47:50;;;;;;;7.65;6.47;;;;;;;3.26;75.42;102131.88;5134584;28;20451;-38
2021/05/03 04:50:15;;;;;;;10.53;6.80;;;;;;;3.32;75.63;102131.28;5134069;28;20027;-39
2021/05/03 04:52:40;;;;;;;7.50;5.60;;;;;;;3.43;75.00;102127.53;5133754;27;20031;-38
2021/05/03 04:55:07;;;;;;;8.03;6.73;;;;;;;3.38;74.71;102121.81;5136972;27;20059;-39
2021/05/03 04:57:33;;;;;;;8.00;6.78;;;;;;;3.41;75.04;102123.31;5137727;27;20060;-39
2021/05/03 04:59:58;;;;;;;8.82;5.90;;;;;;;3.44;74.16;102121.19;5137218;27;20023;-39
2021/05/03 05:02:24;;;;;;;8.93;6.70;;;;;;;3.46;75.02;102118.34;5135915;27;20429;-39
2021/05/03 05:04:49;;;;;;;8.03;6.17;;;;;;;3.54;74.56;102121.13;5137946;27;20120;-39
2021/05/03 05:07:15;;;;;;;6.67;5.50;;;;;;;3.57;74.42;102121.66;5137658;27;20110;-39
2021/05/03 05:09:40;;;;;;;8.57;5.70;;;;;;;3.60;74.34;102121.34;5137366;27;20358;-38
2021/05/03 05:12:06;;;;;;;9.27;5.63;;;;;;;3.64;73.93;102113.84;5137142;27;20031;-39
2021/05/03 05:14:31;;;;;;;6.93;6.23;;;;;;;3.66;73.50;102116.34;5138094;27;20015;-39
2021/05/03 05:16:57;;;;;;;8.63;5.80;;;;;;;3.69;73.98;102113.38;5136977;27;20050;-39
2021/05/03 05:19:23;;;;;;;6.70;6.00;;;;;;;3.80;73.55;102124.66;5136851;27;20023;-39
2021/05/03 05:21:49;;;;;;;6.93;5.35;;;;;;;3.84;73.11;102117.19;5137026;27;20030;-39
2021/05/03 05:24:14;;;;;;;6.63;5.90;;;;;;;3.92;73.49;102116.41;5136975;27;20032;-39
2021/05/03 05:26:40;;;;;;;6.97;4.97;;;;;;;4.04;72.36;102118.66;5137322;27;20024;-39
2021/05/03 05:29:05;;;;;;;;;;;;;;;4.11;72.41;102116.22;5137299;27;20027;-39
2021/05/03 05:31:31;;;;;;;6.63;5.50;;;;;;;4.12;72.16;102116.03;5136925;27;19960;-38
2021/05/03 05:33:56;;;;;;;7.83;5.17;;;;;;;4.20;71.87;102117.09;5136511;27;20343;-39
2021/05/03 05:36:22;;;;;;;5.23;4.70;;;;;;;4.29;71.67;102118.81;5137367;27;20055;-38
2021/05/03 05:38:47;;;;;;;5.90;5.27;;;;;;;4.38;70.89;102126.72;5136507;27;20062;-39
2021/05/03 05:41:14;;;;;;;8.43;5.13;;;;;;;4.46;70.40;102122.44;5136627;27;20019;-39
2021/05/03 05:43:40;;;;;;;7.57;4.75;;;;;;;4.42;70.65;102121.06;5136841;27;20069;-39
2021/05/03 05:46:07;;;;;;;5.05;4.50;;;;;;;4.47;69.53;102118.75;5136587;27;20027;-39
2021/05/03 05:48:33;;;;;;;6.90;4.93;;;;;;;4.49;69.77;102122.09;5136193;27;20034;-39
2021/05/03 05:50:58;;;;;;;5.68;4.55;;;;;;;4.51;69.34;102114.75;5137041;27;20023;-38
2021/05/03 05:53:23;;;;;;;7.10;4.93;;;;;;;4.55;69.66;102110.75;5136132;27;20155;-39
2021/05/03 05:55:49;;;;;;;6.20;4.87;;;;;;;4.59;69.50;102109.44;5137256;27;20051;-39
2021/05/03 05:58:14;;;;;;;9.37;4.30;;;;;;;4.65;69.70;102117.69;5136379;27;20044;-39
2021/05/03 06:00:40;;;;;;;6.07;4.83;;;;;;;4.72;68.29;102108.97;5134868;27;20392;-39
2021/05/03 06:03:05;;;;;;;6.78;3.80;;;;;;;4.79;68.17;102113.53;5136237;27;20492;-39
2021/05/03 06:05:31;;;;;;;4.60;4.07;;;;;;;4.82;68.52;102107.00;5135951;27;20051;-39
2021/05/03 06:07:56;;;;;;;8.43;4.90;;;;;;;4.86;67.83;102106.53;5136670;27;20119;-39
2021/05/03 06:10:21;;;;;;;5.03;4.23;;;;;;;4.95;67.63;102106.56;5136697;27;20031;-39
2021/05/03 06:12:47;;;;;;;6.23;4.03;;;;;;;5.06;66.56;102103.56;5135958;27;20047;-39
2021/05/03 06:15:12;;;;;;;5.53;3.90;;;;;;;5.19;66.45;102106.63;5136623;27;20221;-39
2021/05/03 06:17:38;;;;;;;5.80;3.67;;;;;;;5.34;66.08;102096.91;5135990;27;20031;-39
2021/05/03 06:20:04;;;;;;;4.88;3.85;;;;;;;5.46;65.06;102096.56;5136433;27;20027;-39
2021/05/03 06:22:31;;;;;;;5.57;4.20;;;;;;;5.61;65.41;102092.22;5135785;27;20024;-39
2021/05/03 06:24:59;;;;;;;5.32;3.72;;;;;;;5.74;64.37;102099.78;5135871;27;20034;-39
2021/05/03 06:27:25;;;;;;;4.78;4.00;;;;;;;5.85;63.51;102100.25;5136221;27;20094;-39
2021/05/03 06:29:50;;;;;;;4.90;3.53;;;;;;;5.94;63.44;102107.34;5135488;27;20490;-39
2021/05/03 06:32:15;;;;;;;5.33;3.33;;;;;;;6.04;64.01;102098.25;5135733;27;20094;-39
2021/05/03 06:34:40;;;;;;;4.20;3.67;;;;;;;6.14;61.75;102098.91;5135946;27;20029;-39
2021/05/03 06:37:06;;;;;;;6.73;3.73;;;;;;;6.24;62.76;102102.25;5135270;27;20103;-39
2021/05/03 06:39:31;;;;;;;9.50;3.60;;;;;;;6.32;62.50;102099.53;5135866;27;20171;-39
2021/05/03 06:41:56;;;;;;;3.93;3.20;;;;;;;6.35;61.39;102101.91;5135423;27;20033;-39
2021/05/03 06:44:22;;;;;;;5.10;3.67;;;;;;;6.37;61.15;102101.72;5136243;27;20027;-39
2021/05/03 06:46:48;;;;;;;4.60;3.50;;;;;;;6.45;61.86;102099.00;5136005;27;20050;-39
2021/05/03 06:49:13;;;;;;;5.60;3.70;;;;;;;6.59;61.55;102092.91;5135277;27;20075;-39
2021/05/03 06:51:39;;;;;;;4.70;3.33;;;;;;;6.72;61.00;102097.72;5135843;27;20105;-39
2021/05/03 06:54:04;;;;;;;4.70;3.30;;;;;;;6.85;61.00;102087.25;5135552;27;20026;-39
2021/05/03 06:56:29;;;;;;;5.03;3.93;;;;;;;6.99;60.52;102095.56;5136009;27;20027;-39
2021/05/03 06:58:55;;;;;;;4.77;4.07;;;;;;;7.12;60.66;102093.97;5135672;27;20114;-39
2021/05/03 07:01:21;;;;;;;6.10;3.70;;;;;;;7.20;59.24;102101.16;5135806;27;20020;-39
2021/05/03 07:03:48;;;;;;;6.65;4.30;;;;;;;7.32;59.22;102093.50;5134994;27;20073;-39
2021/05/03 07:06:14;;;;;;;5.95;4.22;;;;;;;7.39;59.10;102095.31;5135210;27;20035;-40
2021/05/03 07:08:40;;;;;;;7.53;4.13;;;;;;;7.46;59.66;102096.25;5135184;27;20023;-40
2021/05/03 07:11:12;;;;;;;;;;;;;;;7.59;59.34;102095.66;5135545;27;20046;-40
2021/05/03 07:13:38;;;;;;;5.50;4.85;;;;;;;7.63;59.70;102088.91;5135281;27;20244;-38
2021/05/03 07:16:04;;;;;;;6.90;5.38;;;;;;;7.68;58.95;102091.88;5134350;27;20039;-39
2021/05/03 07:18:29;;;;;;;6.57;5.55;;;;;;;7.72;59.36;102081.59;5134450;27;20026;-39
2021/05/03 07:20:54;;;;;;;8.03;6.43;;;;;;;7.79;59.09;102087.91;5134430;27;20062;-39
2021/05/03 07:23:20;;;;;;;11.87;6.53;;;;;;;7.89;59.25;102079.56;5134641;27;20524;-39
2021/05/03 07:25:45;;;;;;;9.57;7.47;;;;;;;7.98;59.98;102076.59;5135261;27;20034;-39
2021/05/03 07:28:10;;;;;;;7.93;7.10;;;;;;;8.07;60.43;102071.97;5135183;27;20023;-40
2021/05/03 07:30:35;;;;;;;9.97;7.00;;;;;;;8.17;59.93;102085.19;5135090;27;20027;-39
2021/05/03 07:33:01;;;;;;;8.77;7.47;;;;;;;8.23;59.82;102079.03;5134527;27;20050;-39
2021/05/03 07:35:26;;;;;;;8.03;7.23;;;;;;;8.28;60.20;102068.53;5134283;27;20046;-39
2021/05/03 07:37:52;;;;;;;10.53;7.97;;;;;;;8.38;59.37;102073.69;5134160;27;20348;-39
2021/05/03 07:40:17;;;;;;;11.13;8.10;;;;;;;8.41;59.22;102070.63;5134693;27;20096;-39
2021/05/03 07:42:43;;;;;;;9.43;8.43;;;;;;;8.47;59.12;102067.19;5134442;27;20062;-39
2021/05/03 07:45:12;;;;;;;12.20;8.93;;;;;;;8.58;58.51;102069.38;5134560;27;20038;-39
2021/05/03 07:47:37;;;;;;;11.32;8.25;;;;;;;8.73;59.52;102062.09;5134344;27;20068;-39
2021/05/03 07:50:03;;;;;;;9.37;8.23;;;;;;;8.92;58.60;102070.63;5134296;27;20027;-39
2021/05/03 07:52:29;;;;;;;;;;;;;;;9.07;59.15;102068.72;5134616;27;20098;-38
2021/05/03 07:54:54;;;;;;;10.47;8.17;;;;;;;9.10;57.62;102065.66;5134874;27;19958;-38
2021/05/03 07:57:19;;;;;;;9.70;8.53;;;;;;;9.11;57.18;102056.53;5134518;27;20054;-38
2021/05/03 07:59:44;;;;;;;9.33;8.07;;;;;;;9.14;56.02;102058.84;5134841;28;20047;-38
2021/05/03 08:02:10;;;;;;;9.17;7.60;;;;;;;9.26;56.18;102057.28;5134071;28;20132;-38
2021/05/03 08:04:35;;;;;;;8.87;8.00;;;;;;;9.41;57.23;102059.09;5134699;28;20023;-38
2021/05/03 08:07:00;;;;;;;9.43;7.73;;;;;;;9.61;56.35;102054.69;5134446;27;20061;-38
2021/05/03 08:09:27;;;;;;;11.57;8.37;;;;;;;9.76;55.54;102058.19;5134192;28;20019;-38
2021/05/03 08:11:53;;;;;;;7.93;7.13;;;;;;;9.95;55.16;102047.69;5134103;28;20051;-38
2021/05/03 08:14:21;;;;;;;9.93;7.90;;;;;;;10.12;53.96;102048.22;5134842;28;20046;-38
2021/05/03 08:16:50;;;;;;;8.82;7.82;;;;;;;10.28;54.01;102043.34;5133817;28;20047;-38
2021/05/03 08:19:16;;;;;;;11.52;7.50;;;;;;;10.41;52.68;102039.06;5134057;28;20457;-39
2021/05/03 08:21:41;;;;;;;10.45;8.40;;;;;;;10.45;52.12;102037.63;5134824;28;20106;-39
2021/05/03 08:24:07;;;;;;;8.70;7.32;;;;;;;10.55;51.88;102035.38;5134287;28;20447;-39
2021/05/03 08:26:32;;;;;;;11.00;7.63;;;;;;;10.67;52.35;102038.31;5134850;28;20114;-39
2021/05/03 08:28:58;;;;;;;11.47;7.83;;;;;;;10.76;51.42;102037.13;5136012;27;20110;-39
2021/05/03 08:31:24;;;;;;;10.40;7.60;;;;;;;10.93;51.38;102037.56;5138641;27;20031;-39
2021/05/03 08:33:49;;;;;;;9.23;6.70;;;;;;;10.96;49.56;102031.75;5138408;27;20551;-39
2021/05/03 08:36:14;;;;;;;8.73;7.43;;;;;;;11.08;49.24;102033.69;5138366;27;20029;-40
2021/05/03 08:38:40;;;;;;;7.90;7.10;;;;;;;11.08;48.34;102025.56;5137948;27;20019;-39
2021/05/03 08:41:06;;;;;;;9.63;7.32;;;;;;;11.16;48.34;102021.81;5138119;27;20276;-39
2021/05/03 08:43:33;;;;;;;11.43;7.07;;;;;;;11.24;48.30;102021.59;5137778;27;20023;-40
2021/05/03 08:45:59;;;;;;;9.07;7.53;;;;;;;11.27;47.59;102014.94;5137998;27;20023;-38
2021/05/03 08:48:37;;;;;;;8.00;6.85;;;;;;;11.21;46.78;102022.00;5137461;27;20023;-39
2021/05/03 08:53:34;;;;;;;8.75;6.53;;;;;;;11.24;46.59;102016.19;5137640;27;20031;-39
2021/05/03 08:55:59;;;;;;;9.02;6.30;;;;;;;11.33;46.45;102011.41;5137884;27;20031;-39
2021/05/03 08:58:25;;;;;;;6.83;6.10;;;;;;;11.43;45.80;102025.38;5137194;27;20026;-39
2021/05/03 09:00:51;;;;;;;8.30;6.50;;;;;;;11.53;46.54;102014.97;5137060;27;20063;-39
2021/05/03 09:03:17;;;;;;;8.38;6.28;;;;;;;11.55;46.66;102022.88;5137430;27;20031;-40
2021/05/03 09:05:44;;;;;;;8.20;6.72;;;;;;;11.46;45.63;102021.41;5137407;27;20023;-39
2021/05/03 09:08:25;;;;;;;9.48;6.70;;;;;;;11.52;46.78;102017.88;5137280;27;20465;-39
2021/05/03 09:10:51;;;;;;;10.60;6.32;;;;;;;11.59;45.93;102014.13;5137556;27;20065;-39
2021/05/03 09:13:17;;;;;;;7.38;6.65;;;;;;;11.70;45.39;102006.38;5137717;27;20039;-39
2021/05/03 09:15:44;;;;;;;8.27;5.93;;;;;;;11.86;45.33;102003.28;5137519;27;20034;-38
2021/05/03 09:18:12;;;;;;;7.00;6.20;;;;;;;12.00;44.83;101999.47;5137338;27;20051;-38
2021/05/03 09:20:38;;;;;;;7.82;6.70;;;;;;;12.13;44.65;101995.09;5137611;27;20106;-39
2021/05/03 09:23:14;;;;;;;6.80;6.05;;;;;;;12.31;45.01;101997.94;5137024;27;20058;-39
2021/05/03 09:25:47;;;;;;;7.40;6.70;;;;;;;12.53;45.48;101993.03;5137538;27;20520;-39
2021/05/03 09:28:19;;;;;;;7.30;6.57;;;;;;;12.52;44.05;101989.50;5137275;27;20451;-38
2021/05/03 09:30:45;;;;;;;8.80;6.50;;;;;;;12.58;44.20;101988.63;5136966;27;20040;-38
2021/05/03 09:33:20;;;;;;;8.47;6.90;;;;;;;12.58;44.74;101991.34;5137244;27;20045;-38
2021/05/03 09:35:51;;;;;;;8.55;7.13;;;;;;;12.63;44.70;101986.09;5137120;27;20026;-38
2021/05/03 09:38:39;;;;;;;10.90;7.10;;;;;;;12.66;44.69;101989.44;5136464;27;20019;-39
2021/05/03 09:41:20;;;;;;;7.00;6.15;;;;;;;12.61;42.82;101993.63;5136944;27;20037;-38
2021/05/03 09:43:49;;;;;;;8.60;6.38;;;;;;;12.72;43.09;101983.13;5137475;27;20026;-39
2021/05/03 09:46:29;;;;;;;7.63;6.00;;;;;;;12.84;42.78;101979.53;5136014;27;20046;-38
2021/05/03 09:48:57;;;;;;;8.85;6.85;;;;;;;12.93;42.69;101982.78;5137146;27;20208;-39
2021/05/03 09:51:40;;;;;;;9.05;7.10;;;;;;;13.17;43.95;101973.00;5136289;27;20463;-39
2021/05/03 09:54:12;;;;;;;7.00;6.38;;;;;;;13.40;43.74;101961.59;5136740;27;20379;-39
2021/05/03 09:56:46;;;;;;;7.28;6.57;;;;;;;13.50;42.60;101953.75;5136700;27;20034;-39
2021/05/03 09:59:41;;;;;;;7.75;6.95;;;;;;;13.50;42.33;101964.63;5136829;27;20023;-39
2021/05/03 10:02:23;;;;;;;7.30;6.15;;;;;;;13.78;42.42;101956.00;5136228;27;20042;-39
2021/05/03 10:04:55;;;;;;;7.57;6.75;;;;;;;13.90;42.51;101942.47;5136717;27;20027;-39
2021/05/03 10:07:22;;;;;;;7.53;6.60;;;;;;;13.96;40.71;101947.03;5136361;27;20122;-39
2021/05/03 10:09:52;;;;;;;9.70;6.05;;;;;;;14.02;40.70;101931.69;5136061;27;20027;-39
2021/05/03 10:12:18;;;;;;;6.72;6.00;;;;;;;14.18;39.97;101937.31;5136924;27;20344;-39
2021/05/03 10:14:50;;;;;;;10.00;6.72;;;;;;;14.03;38.98;101926.00;5136117;27;20047;-39
2021/05/03 10:17:16;;;;;;;9.27;6.55;;;;;;;14.11;41.79;101917.53;5135744;27;20035;-39
2021/05/03 10:19:43;;;;;;;8.60;6.63;;;;;;;14.17;40.61;101913.06;5135931;27;20035;-39
2021/05/03 10:22:16;;;;;;;7.18;6.47;;;;;;;14.09;41.08;101914.22;5136265;27;20172;-39
2021/05/03 10:24:43;;;;;;;8.73;6.38;;;;;;;13.95;39.18;101915.44;5136143;27;20046;-39
2021/05/03 10:27:10;;;;;;;7.13;6.18;;;;;;;13.92;39.03;101907.75;5135506;27;20489;-39
2021/05/03 10:29:42;;;;;;;8.52;6.20;;;;;;;13.98;39.14;101898.66;5135627;27;20060;-39
2021/05/03 10:32:13;;;;;;;9.63;6.20;;;;;;;14.04;40.21;101913.22;5136208;27;20019;-39
2021/05/03 10:34:53;;;;;;;7.38;6.60;;;;;;;14.00;40.00;101896.53;5135625;27;20031;-39
2021/05/03 10:37:34;;;;;;;8.90;6.93;;;;;;;13.99;39.70;101891.34;5136133;27;20120;-39
2021/05/03 10:40:04;;;;;;;7.10;6.35;;;;;;;13.92;38.90;101902.31;5135138;27;20042;-39
2021/05/03 10:42:30;;;;;;;7.15;6.35;;;;;;;14.08;39.74;101901.66;5135895;27;20106;-39
2021/05/03 10:45:04;;;;;;;8.38;5.78;;;;;;;14.06;39.02;101892.94;5136346;27;20096;-39
2021/05/03 10:47:39;;;;;;;7.35;5.93;;;;;;;14.07;39.92;101880.97;5135063;27;20031;-39
2021/05/03 10:50:36;;;;;;;7.10;5.50;;;;;;;14.06;39.61;101881.22;5135909;27;20030;-39
2021/05/03 10:53:34;;;;;;;;;;;;;;;14.05;39.00;101880.34;5135691;27;20375;-39
2021/05/03 10:56:00;;;;;;;8.98;5.43;;;;;;;13.91;38.28;101873.47;5072155;28;20272;-39
2021/05/03 10:58:26;;;;;;;7.57;5.65;;;;;;;13.98;38.48;101874.19;5071821;28;20177;-39
2021/05/03 11:01:04;;;;;;;5.43;4.82;;;;;;;14.24;38.72;101866.72;5071803;28;20551;-39
2021/05/03 11:03:54;;;;;;;9.13;4.85;;;;;;;14.53;39.57;101860.47;5071752;28;20035;-39
2021/05/03 11:06:44;;;;;;;5.82;5.15;;;;;;;14.68;38.97;101855.41;5071693;28;20025;-39
2021/05/03 11:11:54;;;;;;;7.28;5.38;;;;;;;14.72;36.78;101857.69;5072033;28;20409;-39
2021/05/03 11:14:21;;;;;;;8.15;5.10;;;;;;;14.66;36.74;101845.84;5071195;28;20044;-39
2021/05/03 11:16:55;;;;;;;5.78;4.97;;;;;;;14.74;36.51;101839.22;5071892;28;20123;-39
2021/05/03 11:22:19;;;;;;;5.40;4.60;;;;;;;14.70;36.18;101833.41;5071500;28;20438;-39
2021/05/03 11:25:09;;;;;;;8.90;4.22;;;;;;;14.68;36.52;101830.91;5071707;28;20033;-40
2021/05/03 11:28:26;;;;;;;6.70;4.20;;;;;;;14.87;35.84;101822.66;5070796;28;20075;-39
2021/05/03 11:32:57;;;;;;;7.45;4.85;;;;;;;14.83;34.89;101822.28;5103387;27;20510;-38
2021/05/03 11:35:49;;;;;;;5.40;4.63;;;;;;;14.82;34.22;101825.25;5135389;27;20337;-38
2021/05/03 11:38:34;;;;;;;6.50;4.05;;;;;;;14.89;35.63;101824.09;5134496;27;20027;-38
2021/05/03 11:43:53;;;;;;;5.90;5.18;;;;;;;14.85;35.49;101822.06;5135068;27;20066;-38
2021/05/03 11:46:31;;;;;;;5.97;5.00;;;;;;;14.71;34.69;101817.91;5135140;27;20034;-39
2021/05/03 11:48:59;;;;;;;7.43;4.78;;;;;;;14.67;35.61;101814.81;5135207;27;20035;-39
2021/05/03 11:51:24;;;;;;;6.07;4.40;;;;;;;14.61;34.91;101816.59;5134131;27;20035;-40
2021/05/03 11:53:50;;;;;;;5.45;4.43;;;;;;;14.63;34.21;101813.63;5134570;27;20026;-39
2021/05/03 11:56:25;;;;;;;5.38;4.28;;;;;;;14.62;34.09;101801.09;5134445;27;20411;-39
2021/05/03 11:58:58;;;;;;;5.10;3.40;;;;;;;14.50;32.04;101806.53;5134220;28;20027;-39
2021/05/03 12:01:25;;;;;;;5.60;3.90;;;;;;;14.42;33.92;101804.09;5134999;28;20023;-39
2021/05/03 12:03:59;;;;;;;6.53;4.68;;;;;;;14.36;34.31;101800.44;5140077;27;20068;-39
2021/05/03 12:06:35;;;;;;;6.70;4.03;;;;;;;14.59;34.49;101798.81;5140782;27;20027;-39